sensor_id;sensor_type;location;lat;lon;timestamp;pressure;altitude;pressure_sealevel;temperature;humidity
10064;BME280;5071;52.360;13.134;2023-12-14T00:00:29;100065.78;;;4.24;100.00
10064;BME280;5071;52.360;13.134;2023-12-14T00:05:30;100068.41;;;4.23;100.00
10064;BME280;5071;52.360;13.134;2023-12-14T00:10:32;100076.28;;;4.21;100.00
10064;BME280;5071;52.360;13.134;2023-12-14T00:15:36;100083.31;;;4.28;100.00
10064;BME280;5071;52.360;13.134;2023-12-14T00:20:38;100081.53;;;4.23;100.00
10064;BME280;5071;52.360;13.134;2023-12-14T00:25:40;100098.16;;;4.20;100.00
10064;BME280;5071;52.360;13.134;2023-12-14T00:30:43;100103.41;;;4.22;100.00
10064;BME280;5071;52.360;13.134;2023-12-14T00:35:45;100107.78;;;4.15;100.00
10064;BME280;5071;52.360;13.134;2023-12-14T00:40:47;100113.91;;;4.09;100.00
10064;BME280;5071;52.360;13.134;2023-12-14T00:45:50;100126.13;;;4.09;100.00
10064;BME280;5071;52.360;13.134;2023-12-14T00:50:53;100132.25;;;4.08;100.00
10064;BME280;5071;52.360;13.134;2023-12-14T00:55:55;100140.13;;;4.06;100.00
10064;BME280;5071;52.360;13.134;2023-12-14T01:00:58;100153.28;;;4.08;100.00
10064;BME280;5071;52.360;13.134;2023-12-14T01:06:00;100163.81;;;4.11;100.00
10064;BME280;5071;52.360;13.134;2023-12-14T01:11:02;100174.25;;;4.05;100.00
10064;BME280;5071;52.360;13.134;2023-12-14T01:16:06;100177.75;;;4.01;100.00
10064;BME280;5071;52.360;13.134;2023-12-14T01:21:08;100181.19;;;3.94;100.00
10064;BME280;5071;52.360;13.134;2023-12-14T01:26:10;100186.44;;;3.94;100.00
10064;BME280;5071;52.360;13.134;2023-12-14T01:31:14;100186.44;;;3.87;100.00
10064;BME280;5071;52.360;13.134;2023-12-14T01:36:20;100199.50;;;3.80;100.00
10064;BME280;5071;52.360;13.134;2023-12-14T01:41:22;100209.09;;;3.75;100.00
10064;BME280;5071;52.360;13.134;2023-12-14T01:46:26;100214.31;;;3.73;100.00
10064;BME280;5071;52.360;13.134;2023-12-14T01:51:28;100207.34;;;3.72;100.00
10064;BME280;5071;52.360;13.134;2023-12-14T01:56:30;100213.50;;;3.79;100.00
10064;BME280;5071;52.360;13.134;2023-12-14T02:01:38;100214.38;;;3.79;100.00
10064;BME280;5071;52.360;13.134;2023-12-14T02:06:41;100223.94;;;3.71;100.00
10064;BME280;5071;52.360;13.134;2023-12-14T02:11:43;100219.50;;;3.64;100.00
10064;BME280;5071;52.360;13.134;2023-12-14T02:16:46;100236.94;;;3.56;100.00
10064;BME280;5071;52.360;13.134;2023-12-14T02:21:49;100242.16;;;3.49;100.00
10064;BME280;5071;52.360;13.134;2023-12-14T02:26:52;100247.34;;;3.43;100.00
10064;BME280;5071;52.360;13.134;2023-12-14T02:32:05;100245.53;;;3.35;100.00
10064;BME280;5071;52.360;13.134;2023-12-14T02:37:07;100247.25;;;3.31;100.00
10064;BME280;5071;52.360;13.134;2023-12-14T02:42:11;100257.69;;;3.28;100.00
10064;BME280;5071;52.360;13.134;2023-12-14T02:47:13;100262.97;;;3.29;100.00
10064;BME280;5071;52.360;13.134;2023-12-14T02:52:15;100264.72;;;3.29;100.00
10064;BME280;5071;52.360;13.134;2023-12-14T02:57:18;100269.03;;;3.25;100.00
10064;BME280;5071;52.360;13.134;2023-12-14T03:02:20;100283.00;;;3.21;100.00
10064;BME280;5071;52.360;13.134;2023-12-14T03:07:22;100300.44;;;3.18;100.00
10064;BME280;5071;52.360;13.134;2023-12-14T03:12:25;100306.50;;;3.15;100.00
10064;BME280;5071;52.360;13.134;2023-12-14T03:17:27;100303.88;;;3.15;100.00
10064;BME280;5071;52.360;13.134;2023-12-14T03:22:29;100314.41;;;3.17;100.00
10064;BME280;5071;52.360;13.134;2023-12-14T03:27:33;100324.84;;;3.12;100.00
10064;BME280;5071;52.360;13.134;2023-12-14T03:32:35;100322.22;;;3.10;100.00
10064;BME280;5071;52.360;13.134;2023-12-14T03:37:37;100335.28;;;3.07;100.00
10064;BME280;5071;52.360;13.134;2023-12-14T03:42:41;100349.31;;;3.11;100.00
10064;BME280;5071;52.360;13.134;2023-12-14T03:47:43;100355.44;;;3.10;100.00
10064;BME280;5071;52.360;13.134;2023-12-14T03:52:45;100358.84;;;3.04;100.00
10064;BME280;5071;52.360;13.134;2023-12-14T03:57:48;100375.47;;;3.05;100.00
10064;BME280;5071;52.360;13.134;2023-12-14T04:02:50;100375.47;;;3.06;100.00
10064;BME280;5071;52.360;13.134;2023-12-14T04:07:53;100391.16;;;3.03;100.00
10064;BME280;5071;52.360;13.134;2023-12-14T04:12:56;100382.41;;;3.01;100.00
10064;BME280;5071;52.360;13.134;2023-12-14T04:17:58;100383.25;;;3.00;100.00
10064;BME280;5071;52.360;13.134;2023-12-14T04:23:01;100388.53;;;3.02;100.00
10064;BME280;5071;52.360;13.134;2023-12-14T04:28:04;100397.25;;;3.01;100.00
10064;BME280;5071;52.360;13.134;2023-12-14T04:33:06;100406.00;;;3.01;100.00
10064;BME280;5071;52.360;13.134;2023-12-14T04:38:08;100401.50;;;2.92;100.00
10064;BME280;5071;52.360;13.134;2023-12-14T04:43:12;100405.88;;;2.92;100.00
10064;BME280;5071;52.360;13.134;2023-12-14T04:48:14;100409.38;;;2.91;100.00
10064;BME280;5071;52.360;13.134;2023-12-14T04:53:16;100427.66;;;2.86;100.00
10064;BME280;5071;52.360;13.134;2023-12-14T04:58:19;100428.56;;;2.90;100.00
10064;BME280;5071;52.360;13.134;2023-12-14T05:03:21;100437.19;;;2.83;100.00
10064;BME280;5071;52.360;13.134;2023-12-14T05:08:23;100436.41;;;2.88;100.00
10064;BME280;5071;52.360;13.134;2023-12-14T05:13:26;100451.31;;;2.91;100.00
10064;BME280;5071;52.360;13.134;2023-12-14T05:18:28;100466.16;;;2.92;100.00
10064;BME280;5071;52.360;13.134;2023-12-14T05:23:30;100477.56;;;2.94;100.00
10064;BME280;5071;52.360;13.134;2023-12-14T05:28:34;100495.81;;;2.88;100.00
10064;BME280;5071;52.360;13.134;2023-12-14T05:33:36;100501.00;;;2.82;100.00
10064;BME280;5071;52.360;13.134;2023-12-14T05:38:39;100517.50;;;2.78;100.00
10064;BME280;5071;52.360;13.134;2023-12-14T05:43:43;100514.06;;;2.80;100.00
10064;BME280;5071;52.360;13.134;2023-12-14T05:48:44;100520.22;;;2.82;100.00
10064;BME280;5071;52.360;13.134;2023-12-14T05:53:46;100529.06;;;2.90;100.00
10064;BME280;5071;52.360;13.134;2023-12-14T05:58:49;100537.88;;;2.96;100.00
10064;BME280;5071;52.360;13.134;2023-12-14T06:03:51;100546.53;;;2.90;100.00
10064;BME280;5071;52.360;13.134;2023-12-14T06:08:53;100555.34;;;2.94;100.00
10064;BME280;5071;52.360;13.134;2023-12-14T06:13:57;100563.19;;;2.94;100.00
10064;BME280;5071;52.360;13.134;2023-12-14T06:18:59;100567.56;;;2.95;100.00
10064;BME280;5071;52.360;13.134;2023-12-14T06:24:01;100581.59;;;2.98;100.00
10064;BME280;5071;52.360;13.134;2023-12-14T06:29:04;100590.19;;;2.88;100.00
10064;BME280;5071;52.360;13.134;2023-12-14T06:34:06;100587.66;;;2.94;100.00
10064;BME280;5071;52.360;13.134;2023-12-14T06:39:08;100592.09;;;2.97;100.00
10064;BME280;5071;52.360;13.134;2023-12-14T06:44:12;100600.84;;;2.97;100.00
10064;BME280;5071;52.360;13.134;2023-12-14T06:49:14;100616.56;;;2.97;100.00
10064;BME280;5071;52.360;13.134;2023-12-14T06:54:16;100623.50;;;2.94;100.00
10064;BME280;5071;52.360;13.134;2023-12-14T06:59:19;100632.34;;;2.99;100.00
10064;BME280;5071;52.360;13.134;2023-12-14T07:04:21;100648.03;;;2.97;100.00
10064;BME280;5071;52.360;13.134;2023-12-14T07:09:23;100648.03;;;2.97;100.00
10064;BME280;5071;52.360;13.134;2023-12-14T07:14:26;100658.53;;;3.00;100.00
10064;BME280;5071;52.360;13.134;2023-12-14T07:19:28;100667.34;;;3.02;100.00
10064;BME280;5071;52.360;13.134;2023-12-14T07:24:30;100670.75;;;2.97;100.00
10064;BME280;5071;52.360;13.134;2023-12-14T07:29:46;100689.09;;;2.97;100.00
10064;BME280;5071;52.360;13.134;2023-12-14T07:34:48;100700.41;;;2.94;100.00
10064;BME280;5071;52.360;13.134;2023-12-14T07:39:50;100703.84;;;2.91;100.00
10064;BME280;5071;52.360;13.134;2023-12-14T07:44:53;100710.16;;;3.01;100.00
10064;BME280;5071;52.360;13.134;2023-12-14T07:49:55;100721.50;;;3.02;100.00
10064;BME280;5071;52.360;13.134;2023-12-14T07:54:57;100698.81;;;3.04;100.00
10064;BME280;5071;52.360;13.134;2023-12-14T08:00:01;100699.69;;;3.03;100.00
10064;BME280;5071;52.360;13.134;2023-12-14T08:05:04;100698.94;;;3.10;100.00
10064;BME280;5071;52.360;13.134;2023-12-14T08:10:07;100711.16;;;3.08;100.00
10064;BME280;5071;52.360;13.134;2023-12-14T08:15:10;100722.47;;;3.07;100.00
10064;BME280;5071;52.360;13.134;2023-12-14T08:20:13;100733.88;;;3.09;100.00
10064;BME280;5071;52.360;13.134;2023-12-14T08:25:15;100741.78;;;3.10;100.00
10064;BME280;5071;52.360;13.134;2023-12-14T08:30:18;100752.19;;;3.07;100.00
10064;BME280;5071;52.360;13.134;2023-12-14T08:35:21;100747.03;;;3.10;100.00
10064;BME280;5071;52.360;13.134;2023-12-14T08:40:23;100758.41;;;3.13;100.00
10064;BME280;5071;52.360;13.134;2023-12-14T08:45:27;100760.06;;;3.07;100.00
10064;BME280;5071;52.360;13.134;2023-12-14T08:50:29;100777.63;;;3.10;100.00
10064;BME280;5071;52.360;13.134;2023-12-14T08:55:31;100790.81;;;3.15;100.00
10064;BME280;5071;52.360;13.134;2023-12-14T09:00:34;100792.47;;;3.11;100.00
10064;BME280;5071;52.360;13.134;2023-12-14T09:05:36;100804.72;;;3.10;100.00
10064;BME280;5071;52.360;13.134;2023-12-14T09:10:38;100796.84;;;3.10;100.00
10064;BME280;5071;52.360;13.134;2023-12-14T09:15:41;100808.25;;;3.13;100.00
10064;BME280;5071;52.360;13.134;2023-12-14T09:20:43;100826.53;;;3.09;100.00
10064;BME280;5071;52.360;13.134;2023-12-14T09:25:46;100844.16;;;3.17;100.00
10064;BME280;5071;52.360;13.134;2023-12-14T09:30:49;100843.31;;;3.18;100.00
10064;BME280;5071;52.360;13.134;2023-12-14T09:35:51;100843.25;;;3.15;100.00
10064;BME280;5071;52.360;13.134;2023-12-14T09:40:53;100857.25;;;3.14;100.00
10064;BME280;5071;52.360;13.134;2023-12-14T09:45:57;100857.16;;;3.10;100.00
10064;BME280;5071;52.360;13.134;2023-12-14T09:50:59;100864.16;;;3.11;100.00
10064;BME280;5071;52.360;13.134;2023-12-14T09:56:02;100864.34;;;3.21;100.00
10064;BME280;5071;52.360;13.134;2023-12-14T10:01:20;100853.19;;;3.31;100.00
10064;BME280;5071;52.360;13.134;2023-12-14T10:06:23;100874.06;;;3.26;100.00
10064;BME280;5071;52.360;13.134;2023-12-14T10:11:25;100878.50;;;3.29;100.00
10064;BME280;5071;52.360;13.134;2023-12-14T10:16:30;100881.19;;;3.30;100.00
10064;BME280;5071;52.360;13.134;2023-12-14T10:21:32;100881.19;;;3.30;100.00
10064;BME280;5071;52.360;13.134;2023-12-14T10:26:34;100880.59;;;3.45;100.00
10064;BME280;5071;52.360;13.134;2023-12-14T10:31:38;100896.34;;;3.45;100.00
10064;BME280;5071;52.360;13.134;2023-12-14T10:36:40;100905.88;;;3.43;100.00
10064;BME280;5071;52.360;13.134;2023-12-14T10:41:47;100917.97;;;3.35;100.00
10064;BME280;5071;52.360;13.134;2023-12-14T10:46:58;100927.50;;;3.30;100.00
10064;BME280;5071;52.360;13.134;2023-12-14T10:52:01;100924.91;;;3.31;100.00
10064;BME280;5071;52.360;13.134;2023-12-14T10:57:05;100934.75;;;3.43;100.00
10064;BME280;5071;52.360;13.134;2023-12-14T11:02:09;100933.78;;;3.38;100.00
10064;BME280;5071;52.360;13.134;2023-12-14T11:07:11;100937.22;;;3.34;100.00
10064;BME280;5071;52.360;13.134;2023-12-14T11:12:13;100932.69;;;3.27;100.00
10064;BME280;5071;52.360;13.134;2023-12-14T11:17:17;100948.63;;;3.36;100.00
10064;BME280;5071;52.360;13.134;2023-12-14T11:22:24;100952.16;;;3.38;100.00
10064;BME280;5071;52.360;13.134;2023-12-14T11:27:27;100955.69;;;3.40;100.00
10064;BME280;5071;52.360;13.134;2023-12-14T11:32:31;100962.69;;;3.41;100.00
10064;BME280;5071;52.360;13.134;2023-12-14T11:37:33;100965.28;;;3.38;100.00
10064;BME280;5071;52.360;13.134;2023-12-14T11:42:36;100981.06;;;3.40;100.00
10064;BME280;5071;52.360;13.134;2023-12-14T11:47:39;100987.16;;;3.39;100.00
10064;BME280;5071;52.360;13.134;2023-12-14T11:52:42;100991.44;;;3.35;100.00
10064;BME280;5071;52.360;13.134;2023-12-14T11:57:46;101007.34;;;3.43;100.00
10064;BME280;5071;52.360;13.134;2023-12-14T12:02:49;101014.47;;;3.48;100.00
10064;BME280;5071;52.360;13.134;2023-12-14T12:07:57;101017.00;;;3.44;100.00
10064;BME280;5071;52.360;13.134;2023-12-14T12:13:00;101014.22;;;3.38;100.00
10064;BME280;5071;52.360;13.134;2023-12-14T12:18:06;101022.13;;;3.39;100.00
10064;BME280;5071;52.360;13.134;2023-12-14T12:23:08;101031.00;;;3.44;100.00
10064;BME280;5071;52.360;13.134;2023-12-14T12:28:10;101029.41;;;3.53;100.00
10064;BME280;5071;52.360;13.134;2023-12-14T12:33:14;101036.13;;;3.38;100.00
10064;BME280;5071;52.360;13.134;2023-12-14T12:38:16;101033.50;;;3.38;100.00
10064;BME280;5071;52.360;13.134;2023-12-14T12:43:18;101039.88;;;3.49;100.00
10064;BME280;5071;52.360;13.134;2023-12-14T12:48:21;101048.56;;;3.48;100.00
10064;BME280;5071;52.360;13.134;2023-12-14T12:53:28;101045.03;;;3.46;100.00
10064;BME280;5071;52.360;13.134;2023-12-14T12:58:31;101049.13;;;3.34;100.00
10064;BME280;5071;52.360;13.134;2023-12-14T13:03:40;101074.78;;;3.45;100.00
10064;BME280;5071;52.360;13.134;2023-12-14T13:08:50;101066.69;;;3.36;100.00
10064;BME280;5071;52.360;13.134;2023-12-14T13:13:53;101073.66;;;3.36;100.00
10064;BME280;5071;52.360;13.134;2023-12-14T13:18:58;101077.19;;;3.36;100.00
10064;BME280;5071;52.360;13.134;2023-12-14T13:24:02;101080.72;;;3.38;100.00
10064;BME280;5071;52.360;13.134;2023-12-14T13:29:08;101087.72;;;3.39;100.00
10064;BME280;5071;52.360;13.134;2023-12-14T13:59:44;101148.78;;;3.32;100.00
10064;BME280;5071;52.360;13.134;2023-12-14T14:04:52;101172.34;;;3.29;100.00
10064;BME280;5071;52.360;13.134;2023-12-14T14:10:09;101170.69;;;3.33;100.00
10064;BME280;5071;52.360;13.134;2023-12-14T14:15:32;101193.25;;;3.26;100.00
10064;BME280;5071;52.360;13.134;2023-12-14T14:20:36;101189.97;;;3.35;100.00
10064;BME280;5071;52.360;13.134;2023-12-14T14:25:44;101211.75;;;3.32;100.00
10064;BME280;5071;52.360;13.134;2023-12-14T16:28:12;101394.66;;;3.04;100.00
10064;BME280;5071;52.360;13.134;2023-12-14T16:33:19;101405.00;;;3.00;100.00
10064;BME280;5071;52.360;13.134;2023-12-14T16:38:29;101414.59;;;2.99;100.00
10064;BME280;5071;52.360;13.134;2023-12-14T16:49:27;101423.50;;;3.04;100.00
10064;BME280;5071;52.360;13.134;2023-12-14T16:54:44;101442.03;;;3.10;100.00
10064;BME280;5071;52.360;13.134;2023-12-14T16:59:59;101445.09;;;3.26;100.00
10064;BME280;5071;52.360;13.134;2023-12-14T17:05:03;101455.31;;;3.17;100.00
10064;BME280;5071;52.360;13.134;2023-12-14T17:10:06;101465.75;;;3.14;100.00
10064;BME280;5071;52.360;13.134;2023-12-14T17:15:12;101477.81;;;3.08;100.00
10064;BME280;5071;52.360;13.134;2023-12-14T17:33:57;101502.47;;;3.14;100.00
10064;BME280;5071;52.360;13.134;2023-12-14T17:39:00;101510.22;;;3.10;100.00
10064;BME280;5071;52.360;13.134;2023-12-14T17:44:05;101518.97;;;3.11;100.00
10064;BME280;5071;52.360;13.134;2023-12-14T17:49:09;101521.66;;;3.13;100.00
10064;BME280;5071;52.360;13.134;2023-12-14T17:54:11;101535.88;;;3.21;100.00
10064;BME280;5071;52.360;13.134;2023-12-14T17:59:13;101544.59;;;3.20;100.00
10064;BME280;5071;52.360;13.134;2023-12-14T18:04:16;101549.09;;;3.24;100.00
10064;BME280;5071;52.360;13.134;2023-12-14T18:09:18;101555.19;;;3.23;100.00
10064;BME280;5071;52.360;13.134;2023-12-14T18:14:20;101566.38;;;3.17;100.00
10064;BME280;5071;52.360;13.134;2023-12-14T18:19:23;101565.41;;;3.14;100.00
10064;BME280;5071;52.360;13.134;2023-12-14T18:24:30;101580.28;;;3.15;100.00
10064;BME280;5071;52.360;13.134;2023-12-14T18:29:32;101594.22;;;3.12;100.00
10064;BME280;5071;52.360;13.134;2023-12-14T18:34:35;101602.91;;;3.11;100.00
10064;BME280;5071;52.360;13.134;2023-12-14T18:39:38;101611.63;;;3.10;100.00
10064;BME280;5071;52.360;13.134;2023-12-14T18:44:40;101622.81;;;3.04;100.00
10064;BME280;5071;52.360;13.134;2023-12-14T18:49:47;101621.84;;;3.01;100.00
10064;BME280;5071;52.360;13.134;2023-12-14T18:54:49;101636.63;;;2.99;100.00
10064;BME280;5071;52.360;13.134;2023-12-14T18:59:52;101640.97;;;2.98;100.00
10064;BME280;5071;52.360;13.134;2023-12-14T19:04:55;101644.25;;;2.92;100.00
10064;BME280;5071;52.360;13.134;2023-12-14T19:09:57;101648.81;;;2.98;100.00
10064;BME280;5071;52.360;13.134;2023-12-14T19:14:59;101651.44;;;2.98;100.00
10064;BME280;5071;52.360;13.134;2023-12-14T19:20:03;101667.16;;;2.97;100.00
10064;BME280;5071;52.360;13.134;2023-12-14T19:25:10;101666.25;;;2.96;100.00
10064;BME280;5071;52.360;13.134;2023-12-14T19:30:13;101686.34;;;2.96;100.00
10064;BME280;5071;52.360;13.134;2023-12-14T19:35:16;101687.13;;;2.93;100.00
10064;BME280;5071;52.360;13.134;2023-12-14T19:40:19;101694.16;;;2.94;100.00
10064;BME280;5071;52.360;13.134;2023-12-14T19:45:21;101698.41;;;2.90;100.00
10064;BME280;5071;52.360;13.134;2023-12-14T19:50:24;101716.47;;;2.83;100.00
10064;BME280;5071;52.360;13.134;2023-12-14T19:55:26;101717.22;;;2.79;100.00
10064;BME280;5071;52.360;13.134;2023-12-14T20:00:28;101732.53;;;2.92;100.00
10064;BME280;5071;52.360;13.134;2023-12-14T20:05:32;101742.22;;;2.93;100.00
10064;BME280;5071;52.360;13.134;2023-12-14T20:10:35;101752.03;;;2.99;100.00
10064;BME280;5071;52.360;13.134;2023-12-14T20:15:38;101759.72;;;2.94;100.00
10064;BME280;5071;52.360;13.134;2023-12-14T20:20:42;101762.13;;;2.88;100.00
10064;BME280;5071;52.360;13.134;2023-12-14T20:25:44;101776.19;;;2.90;100.00
10064;BME280;5071;52.360;13.134;2023-12-14T20:30:47;101772.81;;;2.94;100.00
10064;BME280;5071;52.360;13.134;2023-12-14T20:35:51;101776.28;;;2.93;100.00
10064;BME280;5071;52.360;13.134;2023-12-14T20:40:54;101791.13;;;2.92;100.00
10064;BME280;5071;52.360;13.134;2023-12-14T20:45:56;101785.00;;;2.92;100.00
10064;BME280;5071;52.360;13.134;2023-12-14T20:50:59;101802.13;;;2.82;100.00
10064;BME280;5071;52.360;13.134;2023-12-14T20:56:01;101807.50;;;2.85;100.00
10064;BME280;5071;52.360;13.134;2023-12-14T21:01:02;101818.00;;;2.87;100.00
10064;BME280;5071;52.360;13.134;2023-12-14T21:06:07;101820.53;;;2.84;100.00
10064;BME280;5071;52.360;13.134;2023-12-14T21:11:09;101821.28;;;2.80;100.00
10064;BME280;5071;52.360;13.134;2023-12-14T21:16:11;101821.28;;;2.80;100.00
10064;BME280;5071;52.360;13.134;2023-12-14T21:21:14;101833.53;;;2.81;100.00
10064;BME280;5071;52.360;13.134;2023-12-14T21:26:16;101833.53;;;2.81;100.00
10064;BME280;5071;52.360;13.134;2023-12-14T21:31:19;101835.13;;;2.77;100.00
10064;BME280;5071;52.360;13.134;2023-12-14T21:36:22;101851.44;;;2.68;100.00
10064;BME280;5071;52.360;13.134;2023-12-14T21:41:25;101847.22;;;2.73;100.00
10064;BME280;5071;52.360;13.134;2023-12-14T21:46:27;101854.28;;;2.75;100.00
10064;BME280;5071;52.360;13.134;2023-12-14T21:51:32;101855.81;;;2.69;100.00
10064;BME280;5071;52.360;13.134;2023-12-14T21:56:35;101862.59;;;2.63;100.00
10064;BME280;5071;52.360;13.134;2023-12-14T22:01:37;101858.03;;;2.59;100.00
10064;BME280;5071;52.360;13.134;2023-12-14T22:06:41;101868.53;;;2.59;100.00
10064;BME280;5071;52.360;13.134;2023-12-14T22:11:44;101869.44;;;2.59;100.00
10064;BME280;5071;52.360;13.134;2023-12-14T22:16:46;101875.38;;;2.55;100.00
10064;BME280;5071;52.360;13.134;2023-12-14T22:21:49;101891.06;;;2.53;100.00
10064;BME280;5071;52.360;13.134;2023-12-14T22:26:52;101886.47;;;2.48;100.00
10064;BME280;5071;52.360;13.134;2023-12-14T22:31:54;101890.50;;;2.40;100.00
10064;BME280;5071;52.360;13.134;2023-12-14T22:36:58;101891.34;;;2.39;100.00
10064;BME280;5071;52.360;13.134;2023-12-14T22:42:00;101901.69;;;2.36;100.00
10064;BME280;5071;52.360;13.134;2023-12-14T22:47:03;101917.66;;;2.42;100.00
10064;BME280;5071;52.360;13.134;2023-12-14T22:52:07;101928.97;;;2.41;100.00
10064;BME280;5071;52.360;13.134;2023-12-14T22:57:09;101935.03;;;2.40;100.00
10064;BME280;5071;52.360;13.134;2023-12-14T23:02:12;101949.81;;;2.38;100.00
10064;BME280;5071;52.360;13.134;2023-12-14T23:07:16;101954.34;;;2.42;100.00
10064;BME280;5071;52.360;13.134;2023-12-14T23:12:18;101952.56;;;2.41;100.00
10064;BME280;5071;52.360;13.134;2023-12-14T23:17:21;101958.75;;;2.43;100.00
10064;BME280;5071;52.360;13.134;2023-12-14T23:22:28;101970.19;;;2.45;100.00
10064;BME280;5071;52.360;13.134;2023-12-14T23:27:31;101964.75;;;2.40;100.00
10064;BME280;5071;52.360;13.134;2023-12-14T23:32:34;101971.31;;;2.51;100.00
10064;BME280;5071;52.360;13.134;2023-12-14T23:37:39;101980.75;;;2.46;100.00
10064;BME280;5071;52.360;13.134;2023-12-14T23:42:42;101991.22;;;2.46;100.00
10064;BME280;5071;52.360;13.134;2023-12-14T23:47:44;101998.44;;;2.52;100.00
10064;BME280;5071;52.360;13.134;2023-12-14T23:52:47;102006.16;;;2.49;100.00
10064;BME280;5071;52.360;13.134;2023-12-14T23:57:49;102011.09;;;2.41;100.00
